Time;durP1;ratioP1;P1;durP2;ratioP2;P2;SDS_P1;SDS_P2;PMS_P1;PMS_P2;Temp;Humidity;BMP_temperature;BMP_pressure;BME280_temperature;BME280_humidity;BME280_pressure;Samples;Min_cycle;Max_cycle;Signal;HPM_P1;HPM_P2
2022/01/13 00:01:48;;;;;;;193.93;27.33;;;5.30;99.90;;;;;;4997112;28;20104;-43
2022/01/13 00:04:16;;;;;;;210.48;27.17;;;5.30;99.90;;;;;;5010840;28;20086;-45
2022/01/13 00:06:44;;;;;;;239.48;27.73;;;5.30;99.90;;;;;;5010109;28;20482;-44
2022/01/13 00:09:11;;;;;;;125.32;24.15;;;5.30;99.90;;;;;;4994444;28;20058;-44
2022/01/13 00:11:38;;;;;;;210.88;25.75;;;5.30;99.90;;;;;;4996034;28;20094;-45
2022/01/13 00:14:23;;;;;;;204.68;28.02;;;5.30;99.90;;;;;;4995339;28;20463;-45
2022/01/13 00:19:54;;;;;;;233.25;27.77;;;5.30;99.90;;;;;;4992473;28;20094;-43
2022/01/13 00:22:38;;;;;;;141.02;24.30;;;5.30;99.90;;;;;;5003867;28;20050;-44
2022/01/13 00:25:08;;;;;;;242.52;27.98;;;5.30;99.90;;;;;;5013694;28;20479;-43
2022/01/13 00:27:38;;;;;;;204.73;26.75;;;5.30;99.90;;;;;;4998883;28;20054;-44
2022/01/13 00:30:13;;;;;;;180.23;26.15;;;5.30;99.90;;;;;;5010999;28;20137;-45
2022/01/13 00:32:40;;;;;;;127.75;26.05;;;5.30;99.90;;;;;;4987218;28;20054;-49
2022/01/13 00:35:08;;;;;;;208.60;27.13;;;5.30;99.90;;;;;;5024347;28;20138;-45
2022/01/13 00:37:37;;;;;;;152.90;24.10;;;5.30;99.90;;;;;;4997310;28;20108;-44
2022/01/13 00:40:06;;;;;;;149.13;25.35;;;5.30;99.90;;;;;;4995091;28;20054;-44
2022/01/13 00:42:33;;;;;;;194.60;26.30;;;5.30;99.90;;;;;;5001770;28;20121;-45
2022/01/13 00:45:01;;;;;;;178.50;27.50;;;5.30;99.90;;;;;;5005572;28;20126;-44
2022/01/13 00:47:29;;;;;;;136.48;24.13;;;5.30;99.90;;;;;;5009538;28;20133;-45
2022/01/13 00:49:57;;;;;;;191.52;25.63;;;5.30;99.90;;;;;;4998028;28;20042;-44
2022/01/13 00:52:24;;;;;;;180.35;26.98;;;5.30;99.90;;;;;;4994477;28;20074;-44
2022/01/13 00:54:52;;;;;;;139.95;25.80;;;5.30;99.90;;;;;;4993645;28;20050;-44
2022/01/13 00:57:19;;;;;;;181.70;28.10;;;5.30;99.90;;;;;;4997853;28;20081;-42
2022/01/13 00:59:46;;;;;;;165.32;27.30;;;5.30;99.90;;;;;;5012852;28;20081;-45
2022/01/13 01:02:13;;;;;;;162.20;26.80;;;5.20;99.90;;;;;;5007378;28;20049;-44
2022/01/13 01:04:40;;;;;;;201.18;29.20;;;5.30;99.90;;;;;;5009328;28;20096;-44
2022/01/13 01:07:07;;;;;;;177.15;27.60;;;5.20;99.90;;;;;;5013802;28;20042;-44
2022/01/13 01:09:39;;;;;;;187.85;28.52;;;5.20;99.90;;;;;;4996811;28;20088;-44
2022/01/13 01:12:09;;;;;;;161.48;28.55;;;5.20;99.90;;;;;;4993700;28;20058;-44
2022/01/13 01:14:40;;;;;;;137.75;28.90;;;5.30;99.90;;;;;;4994203;28;20045;-44
2022/01/13 01:17:07;;;;;;;117.80;27.00;;;5.20;99.90;;;;;;5013282;28;20041;-44
2022/01/13 01:19:36;;;;;;;116.25;26.48;;;5.30;99.90;;;;;;5009254;28;20091;-45
2022/01/13 01:25:01;;;;;;;143.52;28.17;;;5.30;99.90;;;;;;4989607;28;20495;-45
2022/01/13 01:27:33;;;;;;;204.43;30.75;;;5.20;99.90;;;;;;5001188;28;20077;-44
2022/01/13 01:30:06;;;;;;;163.48;29.33;;;5.20;99.90;;;;;;5013457;28;20049;-45
2022/01/13 01:32:35;;;;;;;178.73;28.25;;;5.30;99.90;;;;;;4996293;28;20050;-45
2022/01/13 01:35:03;;;;;;;183.63;29.60;;;5.30;99.90;;;;;;5004786;28;20391;-45
2022/01/13 01:37:30;;;;;;;130.52;27.05;;;5.30;99.90;;;;;;4992682;28;20050;-43
2022/01/13 01:39:58;;;;;;;161.23;29.00;;;5.30;99.90;;;;;;4992592;28;20050;-44
2022/01/13 01:42:25;;;;;;;154.48;29.05;;;5.30;99.90;;;;;;4997369;28;20055;-45
2022/01/13 01:44:55;;;;;;;146.73;27.35;;;5.30;99.90;;;;;;4993524;28;20054;-43
2022/01/13 01:47:25;;;;;;;137.45;27.05;;;5.30;99.90;;;;;;5000981;28;20061;-45
2022/01/13 01:49:56;;;;;;;120.05;25.60;;;5.20;99.90;;;;;;5008303;28;20050;-44
2022/01/13 01:52:23;;;;;;;121.90;24.27;;;5.30;99.90;;;;;;4993327;28;20482;-43
2022/01/13 01:54:50;;;;;;;165.77;28.40;;;5.30;99.90;;;;;;4992384;28;20064;-43
2022/01/13 01:57:18;;;;;;;139.32;27.00;;;5.30;99.90;;;;;;4993542;28;20046;-47
2022/01/13 01:59:45;;;;;;;126.53;26.20;;;5.20;99.90;;;;;;4993719;28;20066;-44
2022/01/13 02:02:15;;;;;;;131.38;25.20;;;5.20;99.90;;;;;;4992884;28;20421;-43
2022/01/13 02:04:42;;;;;;;100.25;22.52;;;5.20;99.90;;;;;;4997261;28;20068;-44
2022/01/13 02:07:10;;;;;;;156.85;24.40;;;5.20;99.90;;;;;;5003491;28;20398;-47
2022/01/13 02:09:38;;;;;;;138.32;23.85;;;5.20;99.90;;;;;;4994188;28;20109;-45
2022/01/13 02:12:08;;;;;;;114.28;22.02;;;5.20;99.90;;;;;;4997027;28;20137;-45
2022/01/13 02:14:48;;;;;;;157.50;22.88;;;5.20;99.90;;;;;;4994070;28;20062;-44
2022/01/13 02:17:23;;;;;;;153.45;25.15;;;5.20;99.90;;;;;;4994398;28;20046;-45
2022/01/13 02:19:50;;;;;;;129.02;24.05;;;5.20;99.90;;;;;;5009621;28;20085;-46
2022/01/13 02:22:18;;;;;;;94.85;21.25;;;5.20;99.90;;;;;;4992908;28;20054;-43
2022/01/13 02:24:45;;;;;;;132.60;23.50;;;5.20;99.90;;;;;;5007863;28;20097;-43
2022/01/13 02:27:12;;;;;;;124.47;24.42;;;5.20;99.90;;;;;;5002780;28;20290;-44
2022/01/13 02:29:39;;;;;;;96.63;21.60;;;5.20;99.90;;;;;;5011916;28;20128;-45
2022/01/13 02:32:07;;;;;;;97.28;20.02;;;5.20;99.90;;;;;;5000662;28;20124;-43
2022/01/13 02:34:34;;;;;;;86.50;21.80;;;5.20;99.90;;;;;;4992203;28;20061;-43
2022/01/13 02:37:01;;;;;;;99.80;22.55;;;5.20;99.90;;;;;;4996624;28;20064;-43
2022/01/13 02:39:29;;;;;;;138.07;24.77;;;5.20;99.90;;;;;;4992088;28;20093;-45
2022/01/13 02:41:56;;;;;;;98.93;21.52;;;5.20;99.90;;;;;;4992753;28;20491;-45
2022/01/13 02:44:24;;;;;;;141.43;22.80;;;5.10;99.90;;;;;;4992996;28;20058;-44
2022/01/13 02:47:07;;;;;;;112.50;22.50;;;5.10;99.90;;;;;;5009460;28;20050;-45
2022/01/13 02:49:35;;;;;;;96.28;20.63;;;5.10;99.90;;;;;;5008036;28;20509;-44
2022/01/13 02:52:03;;;;;;;109.38;20.02;;;5.10;99.90;;;;;;4992362;28;20085;-45
2022/01/13 02:54:31;;;;;;;81.10;18.35;;;5.10;99.90;;;;;;4993184;28;20133;-45
2022/01/13 02:56:59;;;;;;;107.43;19.27;;;5.10;99.90;;;;;;4992908;28;20047;-43
2022/01/13 02:59:26;;;;;;;121.47;21.58;;;5.10;99.90;;;;;;4995357;28;20050;-43
2022/01/13 03:01:55;;;;;;;78.82;16.77;;;5.10;99.90;;;;;;5004817;28;20129;-43
2022/01/13 03:04:24;;;;;;;85.28;17.60;;;5.10;99.90;;;;;;4979676;28;20093;-43
2022/01/13 03:06:51;;;;;;;101.25;20.17;;;5.10;99.90;;;;;;5005931;28;20137;-42
2022/01/13 03:09:20;;;;;;;87.32;18.08;;;5.10;99.90;;;;;;5005559;28;20120;-44
2022/01/13 03:11:49;;;;;;;128.27;21.05;;;5.10;99.90;;;;;;5009658;28;20054;-45
2022/01/13 03:14:16;;;;;;;86.80;19.85;;;5.10;99.90;;;;;;5005703;28;20054;-43
2022/01/13 03:16:43;;;;;;;125.82;22.00;;;5.20;99.90;;;;;;5007996;28;20097;-44
2022/01/13 03:19:10;;;;;;;88.78;18.38;;;5.10;99.90;;;;;;4994798;28;20061;-45
2022/01/13 03:21:38;;;;;;;142.77;21.92;;;5.20;99.90;;;;;;4996126;28;20050;-45
2022/01/13 03:24:08;;;;;;;100.60;20.88;;;5.20;99.90;;;;;;5008632;28;20056;-45
2022/01/13 03:26:35;;;;;;;87.25;19.00;;;5.20;99.90;;;;;;4998477;28;20038;-43
2022/01/13 03:29:15;;;;;;;133.70;22.65;;;5.20;99.90;;;;;;4997379;28;20129;-44
2022/01/13 03:31:44;;;;;;;113.05;20.30;;;5.20;99.90;;;;;;5011930;28;20439;-45
2022/01/13 03:34:11;;;;;;;122.50;23.23;;;5.20;99.90;;;;;;4986963;28;20058;-44
2022/01/13 03:36:38;;;;;;;96.15;20.10;;;5.20;99.90;;;;;;5012524;28;20061;-43
2022/01/13 03:39:06;;;;;;;111.63;20.45;;;5.20;99.90;;;;;;4999101;28;20086;-44
2022/01/13 03:41:33;;;;;;;102.00;19.17;;;5.20;99.90;;;;;;4994626;28;20058;-46
2022/01/13 03:44:05;;;;;;;115.43;20.40;;;5.20;99.90;;;;;;4984017;28;20058;-45
2022/01/13 03:46:34;;;;;;;101.35;19.52;;;5.20;99.90;;;;;;5010935;28;20046;-43
2022/01/13 03:49:02;;;;;;;111.32;19.83;;;5.20;99.90;;;;;;4994670;28;20390;-45
2022/01/13 03:51:45;;;;;;;158.00;22.30;;;5.20;99.90;;;;;;4994684;28;20050;-43
2022/01/13 03:55:03;;;;;;;129.50;21.73;;;5.20;99.90;;;;;;5004072;28;20156;-45
2022/01/13 03:57:57;;;;;;;141.40;21.38;;;5.20;99.90;;;;;;4970535;28;20047;-45
2022/01/13 04:00:59;;;;;;;96.28;20.00;;;5.20;99.90;;;;;;4956676;28;20098;-44
2022/01/13 04:03:28;;;;;;;79.97;18.80;;;5.20;99.90;;;;;;5000149;28;20556;-44
2022/01/13 04:06:03;;;;;;;125.45;21.10;;;5.20;99.90;;;;;;5009925;28;20053;-43
2022/01/13 04:08:30;;;;;;;148.05;22.40;;;5.20;99.90;;;;;;5014787;28;20494;-46
2022/01/13 04:11:16;;;;;;;116.65;20.25;;;5.10;99.90;;;;;;5011932;28;20121;-44
2022/01/13 04:13:54;;;;;;;114.32;20.45;;;5.20;99.90;;;;;;4998762;28;20125;-44
2022/01/13 04:16:22;;;;;;;92.05;19.25;;;5.20;99.90;;;;;;5013731;28;20054;-44
2022/01/13 04:18:51;;;;;;;82.03;18.25;;;5.20;99.90;;;;;;5014913;28;20046;-43
2022/01/13 04:21:18;;;;;;;109.30;19.80;;;5.20;99.90;;;;;;5013635;28;20141;-43
2022/01/13 04:23:45;;;;;;;97.00;18.88;;;5.20;99.90;;;;;;4997134;28;20046;-44
2022/01/13 04:26:15;;;;;;;101.18;19.50;;;5.20;99.90;;;;;;4995248;28;20061;-44
2022/01/13 04:28:42;;;;;;;159.45;21.23;;;5.20;99.90;;;;;;5011380;28;20046;-44
2022/01/13 04:31:09;;;;;;;130.43;21.85;;;5.20;99.90;;;;;;4999574;28;20479;-44
2022/01/13 04:33:37;;;;;;;74.93;18.83;;;5.20;99.90;;;;;;4993994;28;20042;-44
2022/01/13 04:36:06;;;;;;;138.25;21.55;;;5.20;99.90;;;;;;4993724;28;20051;-44
2022/01/13 04:38:33;;;;;;;133.27;20.65;;;5.20;99.90;;;;;;5007376;28;20054;-44
2022/01/13 04:41:02;;;;;;;97.82;20.55;;;5.20;99.90;;;;;;4994477;28;20062;-44
2022/01/13 04:43:30;;;;;;;146.07;22.27;;;5.10;99.90;;;;;;5007307;28;20058;-44
2022/01/13 04:45:57;;;;;;;104.35;20.02;;;5.20;99.90;;;;;;5003547;28;20572;-44
2022/01/13 04:48:25;;;;;;;133.30;21.90;;;5.20;99.90;;;;;;5013710;28;20053;-43
2022/01/13 04:50:52;;;;;;;94.20;20.92;;;5.20;99.90;;;;;;5007047;28;20100;-44
2022/01/13 04:53:20;;;;;;;128.85;22.45;;;5.20;99.90;;;;;;4994340;28;20050;-44
2022/01/13 04:55:52;;;;;;;118.00;22.88;;;5.20;99.90;;;;;;4996832;28;20056;-45
2022/01/13 04:58:21;;;;;;;95.10;20.45;;;5.20;99.90;;;;;;5009747;28;20054;-45
2022/01/13 05:00:48;;;;;;;130.93;23.63;;;5.20;99.90;;;;;;5005912;28;20139;-45
2022/01/13 05:03:15;;;;;;;104.80;22.58;;;5.20;99.90;;;;;;5010168;28;20418;-44
2022/01/13 05:05:42;;;;;;;85.63;21.05;;;5.20;99.90;;;;;;4994022;28;20064;-43
2022/01/13 05:08:09;;;;;;;117.85;22.05;;;5.20;99.90;;;;;;5006380;28;20438;-44
2022/01/13 05:10:37;;;;;;;116.22;23.83;;;5.20;99.90;;;;;;5001790;28;20084;-43
2022/01/13 05:13:08;;;;;;;127.47;22.95;;;5.20;99.90;;;;;;5024256;28;20085;-44
2022/01/13 05:15:37;;;;;;;84.97;21.38;;;5.10;99.90;;;;;;5007950;28;20054;-46
2022/01/13 05:18:16;;;;;;;104.72;21.05;;;5.20;99.90;;;;;;5008696;28;20058;-44
2022/01/13 05:20:48;;;;;;;99.93;21.85;;;5.20;99.90;;;;;;4974690;28;20137;-44
2022/01/13 05:23:15;;;;;;;138.32;23.55;;;5.20;99.90;;;;;;5003989;28;20082;-43
2022/01/13 05:25:44;;;;;;;122.68;21.83;;;5.20;99.90;;;;;;4992601;28;20167;-45
2022/01/13 05:28:11;;;;;;;128.30;22.80;;;5.20;99.90;;;;;;4993658;28;20053;-44
2022/01/13 05:30:38;;;;;;;124.55;23.80;;;5.20;99.90;;;;;;4992814;28;20051;-42
2022/01/13 05:33:05;;;;;;;103.72;22.27;;;5.20;99.90;;;;;;4993890;28;20133;-44
2022/01/13 05:35:32;;;;;;;150.60;24.13;;;5.20;99.90;;;;;;4993731;28;20046;-46
2022/01/13 05:37:59;;;;;;;112.38;22.33;;;5.20;99.90;;;;;;4993491;28;20054;-44
2022/01/13 05:40:26;;;;;;;124.05;22.70;;;5.20;99.90;;;;;;4993884;28;20414;-44
2022/01/13 05:42:54;;;;;;;111.63;22.58;;;5.10;99.90;;;;;;4993631;28;20092;-44
2022/01/13 05:45:28;;;;;;;104.97;22.00;;;5.10;99.90;;;;;;4991861;28;20478;-44
2022/01/13 05:47:55;;;;;;;106.80;19.83;;;5.10;99.90;;;;;;4992385;28;20109;-44
2022/01/13 05:50:22;;;;;;;101.63;21.30;;;5.10;99.90;;;;;;4993054;28;20058;-44
2022/01/13 05:52:49;;;;;;;135.52;22.58;;;5.10;99.90;;;;;;4993266;28;20078;-43
2022/01/13 05:55:16;;;;;;;133.50;22.40;;;5.10;99.90;;;;;;4993544;28;20090;-44
2022/01/13 05:57:43;;;;;;;104.80;21.85;;;5.10;99.90;;;;;;4993090;28;20054;-46
2022/01/13 06:00:13;;;;;;;93.47;20.58;;;5.10;99.90;;;;;;4991832;28;20046;-42
2022/01/13 06:02:40;;;;;;;132.27;23.63;;;5.10;99.90;;;;;;4993124;28;20046;-44
2022/01/13 06:05:07;;;;;;;112.22;22.00;;;5.00;99.90;;;;;;4993135;28;20125;-45
2022/01/13 06:07:34;;;;;;;87.45;20.40;;;5.10;99.90;;;;;;4992837;28;20042;-45
2022/01/13 06:10:01;;;;;;;115.97;22.13;;;5.10;99.90;;;;;;4992774;28;20442;-44
2022/01/13 06:12:35;;;;;;;121.50;22.55;;;5.10;99.90;;;;;;5018141;28;20173;-44
2022/01/13 06:15:02;;;;;;;127.95;24.08;;;5.10;99.90;;;;;;4992822;28;20471;-46
2022/01/13 06:17:30;;;;;;;131.52;24.65;;;5.10;99.90;;;;;;4992896;28;20080;-44
2022/01/13 06:19:59;;;;;;;96.95;19.98;;;5.10;99.90;;;;;;4994380;28;20051;-45
2022/01/13 06:22:26;;;;;;;104.57;19.95;;;5.10;99.90;;;;;;4991330;28;20097;-45
2022/01/13 06:24:53;;;;;;;123.80;21.02;;;5.00;99.90;;;;;;4991794;28;20117;-44
2022/01/13 06:27:21;;;;;;;133.40;21.58;;;5.00;99.90;;;;;;4992118;28;20144;-44
2022/01/13 06:29:48;;;;;;;112.13;21.02;;;5.00;99.90;;;;;;4991963;28;20050;-44
2022/01/13 06:32:15;;;;;;;105.60;19.98;;;5.00;99.90;;;;;;4991896;28;20054;-45
2022/01/13 06:34:44;;;;;;;120.95;21.42;;;5.00;99.90;;;;;;4992054;28;20090;-46
2022/01/13 06:37:11;;;;;;;96.13;19.98;;;5.10;99.90;;;;;;4992453;28;20109;-44
2022/01/13 06:39:38;;;;;;;115.40;20.17;;;5.10;99.90;;;;;;4992015;28;20042;-45
2022/01/13 06:42:05;;;;;;;94.57;20.25;;;5.10;99.90;;;;;;4991591;28;20046;-44
2022/01/13 06:44:32;;;;;;;102.47;22.13;;;5.00;99.90;;;;;;4976886;28;20082;-44
2022/01/13 06:46:59;;;;;;;113.47;22.20;;;5.10;99.90;;;;;;4975026;28;20054;-44
2022/01/13 06:49:26;;;;;;;157.50;23.23;;;5.10;99.90;;;;;;4988729;28;20402;-44
2022/01/13 06:51:55;;;;;;;138.77;23.45;;;5.10;99.90;;;;;;4998815;28;20054;-45
2022/01/13 06:54:23;;;;;;;100.53;21.67;;;5.10;99.90;;;;;;5001307;28;20498;-44
2022/01/13 06:56:50;;;;;;;143.40;24.75;;;5.10;99.90;;;;;;4995372;28;20057;-46
2022/01/13 06:59:17;;;;;;;159.52;25.65;;;5.10;99.90;;;;;;4983774;28;20529;-46
2022/01/13 07:01:44;;;;;;;157.88;25.30;;;5.10;99.90;;;;;;4991298;28;20061;-45
2022/01/13 07:04:13;;;;;;;138.27;23.52;;;5.10;99.90;;;;;;4993288;28;20054;-43
2022/01/13 07:06:40;;;;;;;165.07;24.08;;;5.10;99.90;;;;;;4992911;28;20046;-44
2022/01/13 07:09:10;;;;;;;138.13;24.55;;;5.00;99.90;;;;;;4983551;28;20094;-43
2022/01/13 07:11:37;;;;;;;129.18;24.00;;;5.10;99.90;;;;;;4978613;28;20209;-43
2022/01/13 07:14:04;;;;;;;129.40;26.15;;;5.10;99.90;;;;;;4975905;28;20562;-45
2022/01/13 07:16:31;;;;;;;149.98;28.20;;;5.10;99.90;;;;;;4985477;28;20139;-42
2022/01/13 07:18:58;;;;;;;119.63;24.83;;;5.10;99.90;;;;;;4992819;28;20523;-43
2022/01/13 07:21:27;;;;;;;148.40;26.10;;;5.10;99.90;;;;;;4993480;28;20066;-45
2022/01/13 07:23:54;;;;;;;130.10;23.73;;;5.20;99.90;;;;;;5009671;28;20058;-44
2022/01/13 07:26:22;;;;;;;121.75;22.98;;;5.20;99.90;;;;;;4993412;28;20480;-42
2022/01/13 07:28:49;;;;;;;115.72;23.73;;;5.10;99.90;;;;;;4992338;28;20142;-42
2022/01/13 07:31:17;;;;;;;132.52;23.48;;;5.20;99.90;;;;;;5005960;28;20309;-42
2022/01/13 07:33:43;;;;;;;103.68;22.40;;;5.20;99.90;;;;;;4993327;28;20454;-43
2022/01/13 07:36:10;;;;;;;105.28;22.35;;;5.20;99.90;;;;;;4994135;28;20121;-44
2022/01/13 07:38:37;;;;;;;115.93;23.98;;;5.20;99.90;;;;;;4992860;28;20058;-42
2022/01/13 07:41:10;;;;;;;81.78;19.13;;;5.20;99.90;;;;;;4992943;28;20426;-44
2022/01/13 07:43:42;;;;;;;119.82;22.75;;;5.20;99.90;;;;;;4993931;28;20475;-44
2022/01/13 07:46:09;;;;;;;115.50;23.77;;;5.20;99.90;;;;;;4993671;28;20564;-46
2022/01/13 07:48:36;;;;;;;129.18;24.65;;;5.20;99.90;;;;;;5009237;28;20431;-44
2022/01/13 07:51:03;;;;;;;117.97;23.70;;;5.20;99.90;;;;;;4993244;28;20046;-46
2022/01/13 07:53:30;;;;;;;111.32;22.63;;;5.20;99.90;;;;;;4993188;28;20050;-44
2022/01/13 07:55:57;;;;;;;119.80;23.65;;;5.20;99.90;;;;;;4991997;28;20042;-44
2022/01/13 07:58:24;;;;;;;111.07;23.50;;;5.20;99.90;;;;;;4990941;28;20137;-43
2022/01/13 08:00:52;;;;;;;96.38;22.27;;;5.20;99.90;;;;;;4993228;28;20494;-45
2022/01/13 08:03:19;;;;;;;135.23;25.30;;;5.20;99.90;;;;;;4991846;28;20060;-44
2022/01/13 08:05:46;;;;;;;139.32;24.35;;;5.20;99.90;;;;;;5005344;28;20494;-44
2022/01/13 08:08:13;;;;;;;106.18;22.48;;;5.20;99.90;;;;;;5002281;28;20077;-45
2022/01/13 08:10:40;;;;;;;102.70;22.20;;;5.20;99.90;;;;;;4993567;28;20451;-43
2022/01/13 08:13:07;;;;;;;122.18;22.45;;;5.20;99.90;;;;;;5008982;28;20054;-45
2022/01/13 08:15:37;;;;;;;108.78;23.00;;;5.20;99.90;;;;;;4992834;28;20086;-45
2022/01/13 08:21:01;;;;;;;109.45;22.55;;;5.20;99.90;;;;;;4974516;28;20566;-44
2022/01/13 08:23:28;;;;;;;124.80;23.85;;;5.20;99.90;;;;;;4988276;28;20092;-43
2022/01/13 08:25:55;;;;;;;120.20;23.33;;;5.30;99.90;;;;;;4989343;28;20513;-45
2022/01/13 08:28:22;;;;;;;123.82;24.73;;;5.30;99.90;;;;;;4991970;28;20495;-44
2022/01/13 08:30:49;;;;;;;112.15;22.35;;;5.30;99.90;;;;;;4992342;28;20513;-44
2022/01/13 08:33:22;;;;;;;97.78;22.75;;;5.30;99.90;;;;;;4991418;28;20094;-44
2022/01/13 08:35:49;;;;;;;117.40;24.60;;;5.30;99.90;;;;;;4993878;28;20553;-43
2022/01/13 08:38:18;;;;;;;98.53;22.92;;;5.30;99.90;;;;;;4991445;28;20086;-44
2022/01/13 08:40:46;;;;;;;126.43;25.80;;;5.30;99.90;;;;;;4991288;28;20069;-44
2022/01/13 08:43:13;;;;;;;117.63;25.05;;;5.30;99.90;;;;;;4992639;28;20061;-45
2022/01/13 08:45:40;;;;;;;104.93;23.80;;;5.30;99.90;;;;;;4990500;28;20092;-42
2022/01/13 08:48:07;;;;;;;124.70;24.70;;;5.30;99.90;;;;;;4993826;28;20050;-43
2022/01/13 08:50:36;;;;;;;126.45;25.60;;;5.40;99.90;;;;;;4992939;28;20129;-45
2022/01/13 08:53:06;;;;;;;102.13;23.83;;;5.40;99.90;;;;;;4993654;28;20060;-45
2022/01/13 08:55:33;;;;;;;125.90;24.70;;;5.40;99.90;;;;;;4991587;28;20066;-46
2022/01/13 08:58:00;;;;;;;125.25;24.42;;;5.40;99.90;;;;;;4991257;28;20046;-45
2022/01/13 09:00:27;;;;;;;111.22;23.40;;;5.40;99.90;;;;;;4992961;28;20042;-47
2022/01/13 09:02:54;;;;;;;121.57;26.55;;;5.40;99.90;;;;;;4983611;28;20081;-44
2022/01/13 09:05:21;;;;;;;144.25;25.02;;;5.40;99.90;;;;;;4993725;28;20092;-45
2022/01/13 09:07:50;;;;;;;121.25;24.30;;;5.40;99.90;;;;;;4992804;28;20387;-46
2022/01/13 09:10:18;;;;;;;128.60;24.50;;;5.40;99.90;;;;;;4992217;28;20064;-44
2022/01/13 09:12:45;;;;;;;124.15;24.55;;;5.50;99.90;;;;;;4993647;28;20532;-48
2022/01/13 09:15:29;;;;;;;123.00;24.83;;;5.50;99.90;;;;;;4992968;28;20178;-44
2022/01/13 09:17:56;;;;;;;86.38;20.98;;;5.50;99.90;;;;;;4992094;28;20054;-44
2022/01/13 09:20:24;;;;;;;100.15;22.50;;;5.50;99.90;;;;;;4991652;28;20046;-45
2022/01/13 09:22:52;;;;;;;120.70;25.17;;;5.50;99.90;;;;;;4991956;28;20058;-45
2022/01/13 09:25:19;;;;;;;104.90;23.17;;;5.50;99.90;;;;;;4992569;28;20057;-42
2022/01/13 09:27:46;;;;;;;113.15;23.90;;;5.50;99.90;;;;;;4992628;28;20050;-46
2022/01/13 09:30:14;;;;;;;102.15;22.02;;;5.60;99.90;;;;;;4990787;28;20046;-46
2022/01/13 09:32:41;;;;;;;88.93;20.58;;;5.60;99.90;;;;;;4992234;28;20465;-44
2022/01/13 09:35:09;;;;;;;121.88;23.70;;;5.60;99.90;;;;;;4992173;28;20080;-46
2022/01/13 09:37:36;;;;;;;121.50;23.85;;;5.60;99.90;;;;;;4988798;28;20129;-45
2022/01/13 09:40:10;;;;;;;141.35;24.23;;;5.60;99.90;;;;;;4982948;28;20499;-45
2022/01/13 09:42:37;;;;;;;120.43;25.05;;;5.60;99.90;;;;;;4981515;28;20141;-44
2022/01/13 09:45:05;;;;;;;100.45;22.05;;;5.60;99.90;;;;;;4969251;28;20082;-45
2022/01/13 09:47:32;;;;;;;122.45;24.10;;;5.60;99.90;;;;;;4985414;28;20050;-44
2022/01/13 09:50:00;;;;;;;111.60;23.70;;;5.60;99.90;;;;;;4988780;28;20392;-44
2022/01/13 09:52:28;;;;;;;137.55;24.10;;;5.60;99.90;;;;;;4991927;28;20502;-44
2022/01/13 09:54:55;;;;;;;123.30;23.60;;;5.70;99.90;;;;;;4991608;28;20466;-44
2022/01/13 09:57:24;;;;;;;143.50;24.10;;;5.70;99.90;;;;;;4990187;28;20112;-46
2022/01/13 09:59:51;;;;;;;131.88;23.55;;;5.70;99.90;;;;;;4992072;28;20056;-47
2022/01/13 10:02:18;;;;;;;107.47;21.92;;;5.70;99.90;;;;;;4990414;28;20113;-47
2022/01/13 10:04:46;;;;;;;145.80;25.45;;;5.70;99.90;;;;;;4992378;28;20058;-46
2022/01/13 10:07:17;;;;;;;126.32;24.13;;;5.70;99.90;;;;;;4983998;28;20149;-45
2022/01/13 10:09:53;;;;;;;113.35;23.60;;;5.70;99.90;;;;;;4973698;28;20623;-48
2022/01/13 10:12:26;;;;;;;109.25;21.15;;;5.80;99.90;;;;;;5004994;28;20064;-44
2022/01/13 10:17:48;;;;;;;103.85;23.40;;;5.80;99.90;;;;;;4992432;28;20046;-42
2022/01/13 10:20:15;;;;;;;149.75;24.92;;;5.80;99.90;;;;;;4991785;28;20050;-45
2022/01/13 10:22:43;;;;;;;129.63;24.25;;;5.80;99.90;;;;;;4991099;28;20054;-45
2022/01/13 10:25:25;;;;;;;119.18;24.83;;;5.80;99.90;;;;;;4989807;28;20109;-43
2022/01/13 10:27:53;;;;;;;121.32;25.10;;;5.90;99.90;;;;;;4990464;28;20060;-43
2022/01/13 10:30:22;;;;;;;123.55;25.20;;;5.90;99.90;;;;;;4994448;28;20059;-43
2022/01/13 10:32:49;;;;;;;104.55;22.67;;;5.90;99.90;;;;;;4993961;28;20081;-44
2022/01/13 10:35:17;;;;;;;131.25;25.63;;;5.90;99.90;;;;;;5005336;28;20085;-43
2022/01/13 10:37:44;;;;;;;107.43;25.00;;;5.90;99.90;;;;;;4994457;28;20054;-43
2022/01/13 10:40:14;;;;;;;126.18;25.58;;;6.00;99.90;;;;;;4995377;28;20082;-44
2022/01/13 10:45:26;;;;;;;110.68;24.13;;;6.00;99.90;;;;;;4992192;28;20054;-44
2022/01/13 10:47:54;;;;;;;100.95;21.45;;;6.00;99.90;;;;;;5008626;28;20054;-43
2022/01/13 10:50:22;;;;;;;106.63;23.45;;;6.10;99.90;;;;;;4990201;28;20050;-44
2022/01/13 10:52:50;;;;;;;102.68;23.10;;;6.10;99.90;;;;;;4995873;28;20058;-44
2022/01/13 10:55:21;;;;;;;104.18;22.73;;;6.10;99.90;;;;;;4994188;28;20553;-43
2022/01/13 10:57:49;;;;;;;111.68;24.58;;;6.10;99.90;;;;;;4994693;28;20086;-44
2022/01/13 11:00:20;;;;;;;118.15;24.13;;;6.10;99.90;;;;;;4993086;28;20509;-44
2022/01/13 11:03:02;;;;;;;96.50;22.08;;;6.20;99.90;;;;;;4993739;28;20050;-43
2022/01/13 11:05:29;;;;;;;90.32;22.17;;;6.20;99.90;;;;;;4994352;28;20058;-44
2022/01/13 11:07:57;;;;;;;96.00;22.50;;;6.20;99.90;;;;;;4994742;28;20082;-45
2022/01/13 11:10:24;;;;;;;99.80;23.00;;;6.20;99.90;;;;;;4992095;28;20487;-43
2022/01/13 11:12:57;;;;;;;102.43;23.95;;;6.20;99.90;;;;;;4993761;28;20141;-43
2022/01/13 11:15:24;;;;;;;86.95;20.77;;;6.20;99.90;;;;;;4981360;28;20534;-46
2022/01/13 11:17:53;;;;;;;104.82;22.55;;;6.20;99.90;;;;;;4984545;28;20054;-45
2022/01/13 11:20:20;;;;;;;93.47;21.63;;;6.20;99.90;;;;;;4993720;28;20546;-43
2022/01/13 11:22:48;;;;;;;96.55;22.42;;;6.20;99.90;;;;;;4993392;28;20129;-45
2022/01/13 11:25:18;;;;;;;99.45;23.38;;;6.20;99.90;;;;;;4991587;28;20121;-44
2022/01/13 11:27:45;;;;;;;93.25;22.02;;;6.30;99.90;;;;;;4993314;28;20513;-45
2022/01/13 11:30:13;;;;;;;94.75;22.95;;;6.30;99.90;;;;;;4993166;28;20046;-45
2022/01/13 11:32:40;;;;;;;88.70;22.15;;;6.30;99.90;;;;;;4994337;28;20502;-45
2022/01/13 11:35:09;;;;;;;107.30;24.38;;;6.30;99.90;;;;;;4993463;28;20121;-44
2022/01/13 11:37:39;;;;;;;98.97;26.20;;;6.30;99.90;;;;;;4995079;28;20050;-44
2022/01/13 11:40:07;;;;;;;97.47;25.38;;;6.30;99.90;;;;;;4987085;28;20090;-44
2022/01/13 11:42:46;;;;;;;100.97;24.33;;;6.30;99.90;;;;;;4973665;28;20150;-44
2022/01/13 11:45:18;;;;;;;92.22;23.23;;;6.30;99.90;;;;;;4981477;28;20312;-47
2022/01/13 11:47:45;;;;;;;96.50;23.95;;;6.30;99.90;;;;;;4995018;28;20093;-43
2022/01/13 11:50:18;;;;;;;98.57;25.17;;;6.30;99.90;;;;;;4992897;28;20057;-44
2022/01/13 11:52:50;;;;;;;106.05;24.75;;;6.30;99.90;;;;;;4990566;28;20050;-45
2022/01/13 11:55:27;;;;;;;105.30;24.30;;;6.30;99.90;;;;;;4992532;28;20395;-45
2022/01/13 11:58:10;;;;;;;109.50;24.17;;;6.40;99.90;;;;;;4993498;28;20047;-44
2022/01/13 12:00:37;;;;;;;85.45;24.08;;;6.30;99.90;;;;;;4993852;28;20089;-44
2022/01/13 12:03:22;;;;;;;111.70;24.65;;;6.30;99.90;;;;;;4993861;28;20092;-45
2022/01/13 12:05:50;;;;;;;114.90;24.90;;;6.30;99.90;;;;;;4994761;28;20081;-46
2022/01/13 12:08:36;;;;;;;116.78;25.58;;;6.40;99.90;;;;;;4993892;28;20499;-46
2022/01/13 12:11:03;;;;;;;108.50;26.30;;;6.30;99.90;;;;;;4992635;28;20097;-46
2022/01/13 12:13:40;;;;;;;114.70;26.23;;;6.40;99.90;;;;;;5003172;28;20141;-45
2022/01/13 12:16:08;;;;;;;108.50;24.83;;;6.40;99.90;;;;;;5012293;28;20053;-44
2022/01/13 12:19:05;;;;;;;122.97;27.92;;;6.40;99.90;;;;;;5013613;28;20532;-45
2022/01/13 12:21:36;;;;;;;125.22;27.92;;;6.40;99.90;;;;;;4975064;28;20404;-44
2022/01/13 12:24:04;;;;;;;131.43;28.40;;;6.40;99.90;;;;;;4974936;28;20054;-45
2022/01/13 12:26:56;;;;;;;120.22;27.42;;;6.40;99.90;;;;;;4979778;28;20078;-43
2022/01/13 12:29:27;;;;;;;138.18;30.23;;;6.40;99.90;;;;;;4994084;28;20466;-47
2022/01/13 12:31:56;;;;;;;110.65;26.85;;;6.40;99.90;;;;;;4994782;28;20566;-45
2022/01/13 12:34:46;;;;;;;142.57;31.60;;;6.40;99.90;;;;;;5007350;28;20438;-45
2022/01/13 12:37:30;;;;;;;147.70;31.73;;;6.40;99.90;;;;;;4993764;28;20053;-45
2022/01/13 12:40:02;;;;;;;142.93;31.23;;;6.40;99.90;;;;;;4992487;28;20137;-44
2022/01/13 12:42:33;;;;;;;124.25;29.05;;;6.40;99.90;;;;;;5010122;28;20100;-45
2022/01/13 12:47:45;;;;;;;142.68;33.45;;;6.40;99.90;;;;;;4995900;28;20052;-45
2022/01/13 12:50:16;;;;;;;129.88;31.20;;;6.50;99.90;;;;;;4993824;28;20052;-45
2022/01/13 12:52:45;;;;;;;;;;;6.50;99.90;;;;;;4994083;28;20054;-47
2022/01/13 12:55:12;;;;;;;116.50;30.35;;;6.50;99.90;;;;;;5003279;28;20017;-45
2022/01/13 12:57:51;;;;;;;132.60;31.45;;;6.40;99.90;;;;;;4992132;28;20058;-43